createdAt,value
2017-10-15T00:02:16.452Z,89.40
2017-10-15T00:04:43.236Z,88.90
2017-10-15T00:07:09.531Z,90.10
2017-10-15T00:09:36.640Z,90.70
2017-10-15T00:12:02.947Z,90.10
2017-10-15T00:14:29.242Z,90.10
2017-10-15T00:16:56.325Z,90.70
2017-10-15T00:19:22.619Z,90.70
2017-10-15T00:21:50.123Z,92.30
2017-10-15T00:24:16.987Z,92.40
2017-10-15T00:26:43.703Z,91.60
2017-10-15T00:29:10.001Z,91.80
2017-10-15T00:31:36.307Z,91.70
2017-10-15T00:34:03.263Z,91.60
2017-10-15T00:36:29.983Z,92.20
2017-10-15T00:38:57.154Z,91.70
2017-10-15T00:41:23.503Z,92.50
2017-10-15T00:43:49.852Z,90.60
2017-10-15T00:46:16.211Z,92.10
2017-10-15T00:48:43.279Z,91.00
2017-10-15T00:51:09.686Z,91.20
2017-10-15T00:53:37.123Z,93.00
2017-10-15T00:56:03.979Z,92.50
2017-10-15T00:58:31.124Z,91.40
2017-10-15T01:00:57.441Z,90.70
2017-10-15T01:03:23.783Z,91.60
2017-10-15T01:05:50.163Z,91.10
2017-10-15T01:08:17.795Z,92.30
2017-10-15T01:10:44.747Z,91.40
2017-10-15T01:13:11.054Z,91.80
2017-10-15T01:15:37.384Z,91.90
2017-10-15T01:18:03.740Z,92.20
2017-10-15T01:20:30.720Z,91.40
2017-10-15T01:22:57.759Z,91.60
2017-10-15T01:25:24.086Z,91.30
2017-10-15T01:27:50.967Z,91.00
2017-10-15T01:30:18.043Z,91.60
2017-10-15T01:32:45.874Z,91.80
2017-10-15T01:35:12.215Z,91.90
2017-10-15T01:37:38.563Z,91.30
2017-10-15T01:40:04.944Z,91.20
2017-10-15T01:42:31.294Z,91.50
2017-10-15T01:44:58.422Z,90.90
2017-10-15T01:47:25.539Z,91.80
2017-10-15T01:49:52.479Z,91.90
2017-10-15T01:52:18.816Z,91.90
2017-10-15T01:54:45.151Z,91.90
2017-10-15T01:57:11.919Z,91.70
2017-10-15T01:59:38.843Z,91.30
2017-10-15T02:02:06.095Z,90.90
2017-10-15T02:04:32.419Z,91.00
2017-10-15T02:06:58.735Z,90.90
2017-10-15T02:09:25.531Z,91.60
2017-10-15T02:11:51.826Z,91.20
2017-10-15T02:14:18.139Z,90.70
2017-10-15T02:16:45.758Z,90.80
2017-10-15T02:19:12.057Z,90.90
2017-10-15T02:21:38.370Z,90.60
2017-10-15T02:24:05.816Z,90.60
2017-10-15T02:26:32.791Z,90.70
2017-10-15T02:29:00.301Z,91.10
2017-10-15T02:31:27.251Z,91.10
2017-10-15T02:33:54.112Z,91.50
2017-10-15T02:36:21.085Z,91.60
2017-10-15T02:38:47.903Z,91.20
2017-10-15T02:41:14.840Z,90.40
2017-10-15T02:43:41.155Z,90.70
2017-10-15T02:46:07.507Z,91.00
2017-10-15T02:48:33.887Z,91.30
2017-10-15T02:51:00.211Z,91.40
2017-10-15T02:53:26.921Z,91.10
2017-10-15T02:55:53.892Z,91.10
2017-10-15T02:58:20.743Z,91.50
2017-10-15T03:00:47.061Z,92.00
2017-10-15T03:03:13.373Z,92.20
2017-10-15T03:05:39.695Z,92.50
2017-10-15T03:08:06.728Z,92.30
2017-10-15T03:10:33.539Z,92.20
2017-10-15T03:12:59.851Z,92.30
2017-10-15T03:15:26.656Z,91.80
2017-10-15T03:17:54.443Z,93.60
2017-10-15T03:20:21.481Z,92.70
2017-10-15T03:22:48.707Z,92.70
2017-10-15T03:25:15.330Z,92.20
2017-10-15T03:27:42.199Z,92.40
2017-10-15T03:30:08.803Z,92.20
2017-10-15T03:32:35.795Z,91.80
2017-10-15T03:35:02.111Z,91.60
2017-10-15T03:37:28.405Z,91.20
2017-10-15T03:39:55.475Z,91.40
2017-10-15T03:42:21.815Z,91.50
2017-10-15T03:44:48.211Z,92.30
2017-10-15T03:47:14.539Z,92.80
2017-10-15T03:49:40.849Z,93.00
2017-10-15T03:52:07.651Z,93.20
2017-10-15T03:54:34.695Z,93.20
2017-10-15T03:57:01.453Z,93.30
2017-10-15T03:59:28.943Z,93.80
2017-10-15T04:01:55.711Z,93.90
2017-10-15T04:04:22.021Z,93.60
2017-10-15T04:06:48.311Z,92.90
2017-10-15T04:09:15.343Z,92.30
2017-10-15T04:11:42.200Z,92.00
2017-10-15T04:14:08.527Z,91.70
2017-10-15T04:16:34.860Z,91.40
2017-10-15T04:19:01.235Z,91.30
2017-10-15T04:21:29.075Z,91.20
2017-10-15T04:23:55.819Z,91.40
2017-10-15T04:26:22.774Z,90.60
2017-10-15T04:28:49.087Z,90.60
2017-10-15T04:31:15.831Z,90.80
2017-10-15T04:33:42.599Z,90.30
2017-10-15T04:36:08.905Z,90.20
2017-10-15T04:38:35.205Z,90.30
2017-10-15T04:41:02.775Z,90.00
2017-10-15T04:43:29.823Z,89.80
2017-10-15T04:45:56.859Z,90.20
2017-10-15T04:48:23.191Z,90.20
2017-10-15T04:50:49.495Z,90.20
2017-10-15T04:53:15.892Z,89.90
2017-10-15T04:55:43.615Z,89.70
2017-10-15T04:58:10.665Z,89.70
2017-10-15T05:00:37.511Z,89.60
2017-10-15T05:03:03.815Z,89.60
2017-10-15T05:05:30.133Z,89.50
2017-10-15T05:07:57.029Z,89.50
2017-10-15T05:10:23.936Z,89.30
2017-10-15T05:12:50.291Z,89.30
2017-10-15T05:15:17.267Z,89.10
2017-10-15T05:17:43.567Z,89.10
2017-10-15T05:20:09.866Z,89.30
2017-10-15T05:22:36.897Z,89.00
2017-10-15T05:25:03.849Z,89.00
2017-10-15T05:27:30.575Z,88.90
2017-10-15T05:29:56.906Z,88.90
2017-10-15T05:32:23.728Z,88.90
2017-10-15T05:34:50.039Z,88.70
2017-10-15T05:37:16.791Z,88.00
2017-10-15T05:39:43.091Z,88.80
2017-10-15T05:42:09.948Z,87.90
2017-10-15T05:44:36.245Z,87.10
2017-10-15T05:47:03.038Z,87.50
2017-10-15T05:49:29.359Z,87.20
2017-10-15T05:51:55.667Z,87.10
2017-10-15T05:54:22.027Z,87.10
2017-10-15T05:56:48.790Z,86.80
2017-10-15T05:59:15.575Z,86.30
2017-10-15T06:01:42.615Z,86.10
2017-10-15T06:04:10.529Z,86.10
2017-10-15T06:06:37.504Z,86.10
2017-10-15T06:09:04.348Z,85.90
2017-10-15T06:11:30.696Z,86.00
2017-10-15T06:13:57.439Z,85.80
2017-10-15T06:16:24.276Z,85.70
2017-10-15T06:18:50.599Z,85.10
2017-10-15T06:21:17.393Z,85.10
2017-10-15T06:23:45.027Z,84.00
2017-10-15T06:26:11.913Z,83.50
2017-10-15T06:28:38.968Z,83.50
2017-10-15T06:31:06.023Z,83.80
2017-10-15T06:33:33.547Z,82.80
2017-10-15T06:35:59.851Z,82.90
2017-10-15T06:38:26.153Z,82.50
2017-10-15T06:40:53.880Z,82.40
2017-10-15T06:43:20.931Z,82.30
2017-10-15T06:45:47.574Z,80.80
2017-10-15T06:48:14.283Z,81.60
2017-10-15T06:50:40.983Z,81.60
2017-10-15T06:53:07.295Z,81.50
2017-10-15T06:55:34.129Z,80.50
2017-10-15T06:58:00.451Z,79.70
2017-10-15T07:00:26.769Z,79.80
2017-10-15T07:02:54.391Z,79.10
2017-10-15T07:05:21.113Z,78.90
2017-10-15T07:07:48.083Z,78.80
2017-10-15T07:10:14.715Z,79.30
2017-10-15T07:12:41.580Z,78.90
2017-10-15T07:15:08.243Z,78.20
2017-10-15T07:17:35.271Z,78.60
2017-10-15T07:20:02.223Z,78.20
2017-10-15T07:22:28.538Z,77.80
2017-10-15T07:24:56.323Z,77.90
2017-10-15T07:27:23.079Z,77.20
2017-10-15T07:29:49.775Z,77.50
2017-10-15T07:32:16.071Z,77.00
2017-10-15T07:34:43.011Z,76.10
2017-10-15T07:37:09.311Z,76.60
2017-10-15T07:39:35.619Z,76.60
2017-10-15T07:42:03.137Z,75.10
2017-10-15T07:44:30.194Z,74.80
2017-10-15T07:46:56.508Z,72.80
2017-10-15T07:49:22.811Z,74.80
2017-10-15T07:51:49.921Z,73.30
2017-10-15T07:54:16.247Z,73.20
2017-10-15T07:56:43.103Z,71.80
2017-10-15T07:59:10.151Z,74.30
2017-10-15T08:01:37.007Z,73.60
2017-10-15T08:04:03.319Z,73.50
2017-10-15T08:06:29.623Z,72.80
2017-10-15T08:08:56.695Z,72.10
2017-10-15T08:11:23.713Z,72.20
2017-10-15T08:13:51.239Z,70.90
2017-10-15T08:16:19.123Z,71.20
2017-10-15T08:18:45.422Z,70.40
2017-10-15T08:21:11.739Z,70.90
2017-10-15T08:23:39.360Z,70.90
2017-10-15T08:26:06.279Z,70.60
2017-10-15T08:28:33.087Z,71.40
2017-10-15T08:30:59.387Z,70.10
2017-10-15T08:33:25.691Z,71.00
2017-10-15T08:35:52.447Z,69.50
2017-10-15T08:38:18.751Z,70.10
2017-10-15T08:40:45.801Z,68.50
2017-10-15T08:43:12.871Z,67.50
2017-10-15T08:45:39.267Z,67.70
2017-10-15T08:48:05.659Z,68.20
2017-10-15T08:50:32.483Z,68.00
2017-10-15T08:52:59.527Z,66.90
2017-10-15T08:55:27.069Z,66.30
2017-10-15T08:57:54.079Z,66.50
2017-10-15T09:00:20.785Z,67.20
2017-10-15T09:02:47.873Z,66.80
2017-10-15T09:05:14.179Z,66.70
2017-10-15T09:07:42.115Z,66.60
2017-10-15T09:10:09.037Z,66.50
2017-10-15T09:12:35.731Z,64.10
2017-10-15T09:15:02.660Z,66.30
2017-10-15T09:17:28.970Z,66.40
2017-10-15T09:19:55.731Z,66.00
2017-10-15T09:22:22.680Z,64.90
2017-10-15T09:24:49.409Z,66.00
2017-10-15T09:27:15.706Z,65.10
2017-10-15T09:29:43.431Z,62.20
2017-10-15T09:32:10.428Z,61.80
2017-10-15T09:34:37.887Z,62.30
2017-10-15T09:37:05.083Z,63.80
2017-10-15T09:39:31.956Z,63.70
2017-10-15T09:41:58.595Z,64.00
2017-10-15T09:44:24.955Z,63.60
2017-10-15T09:46:51.263Z,61.40
2017-10-15T09:49:17.563Z,58.60
2017-10-15T09:51:43.914Z,60.00
2017-10-15T09:54:10.347Z,61.60
2017-10-15T09:56:37.948Z,60.50
2017-10-15T09:59:04.253Z,59.20
2017-10-15T10:01:30.567Z,61.50
2017-10-15T10:03:58.271Z,61.70
2017-10-15T10:06:24.583Z,61.60
2017-10-15T10:08:50.947Z,61.10
2017-10-15T10:11:17.699Z,61.90
2017-10-15T10:13:44.003Z,60.60
2017-10-15T10:16:10.308Z,58.30
2017-10-15T10:18:36.640Z,59.10
2017-10-15T10:21:03.678Z,60.20
2017-10-15T10:23:30.612Z,58.00
2017-10-15T10:25:56.922Z,58.80
2017-10-15T10:28:23.572Z,59.20
2017-10-15T10:30:50.551Z,56.80
2017-10-15T10:33:17.450Z,58.10
2017-10-15T10:35:44.027Z,55.00
2017-10-15T10:38:10.355Z,58.50
2017-10-15T10:40:36.671Z,58.10
2017-10-15T10:43:02.975Z,56.50
2017-10-15T10:45:29.784Z,55.60
2017-10-15T10:47:56.145Z,54.70
2017-10-15T10:50:23.223Z,56.00
2017-10-15T10:52:50.616Z,55.60
2017-10-15T10:55:17.591Z,55.40
2017-10-15T10:57:44.009Z,57.50
2017-10-15T11:00:10.339Z,56.30
2017-10-15T11:02:36.787Z,55.90
2017-10-15T11:05:03.143Z,55.60
2017-10-15T11:07:29.459Z,56.80
2017-10-15T11:09:56.491Z,57.30
2017-10-15T11:12:22.803Z,55.30
2017-10-15T11:14:49.840Z,52.30
2017-10-15T11:17:16.567Z,52.50
2017-10-15T11:19:42.883Z,51.70
2017-10-15T11:22:09.349Z,50.50
2017-10-15T11:24:35.946Z,52.30
2017-10-15T11:27:02.256Z,50.40
2017-10-15T11:29:29.294Z,50.60
2017-10-15T11:31:56.123Z,50.50
2017-10-15T11:34:23.379Z,49.90
2017-10-15T11:36:50.366Z,51.50
2017-10-15T11:39:18.187Z,52.00
2017-10-15T11:41:44.823Z,51.90
2017-10-15T11:44:11.120Z,49.20
2017-10-15T11:46:38.207Z,50.50
2017-10-15T11:49:04.543Z,50.30
2017-10-15T11:51:30.939Z,50.90
2017-10-15T11:53:58.291Z,50.70
2017-10-15T11:56:25.557Z,50.20
2017-10-15T11:58:52.605Z,51.10
2017-10-15T12:01:18.927Z,51.20
2017-10-15T12:03:45.731Z,49.40
2017-10-15T12:06:12.579Z,49.50
2017-10-15T12:08:39.426Z,49.40
2017-10-15T12:11:05.983Z,49.80
2017-10-15T12:13:32.744Z,49.20
2017-10-15T12:15:59.255Z,49.50
2017-10-15T12:18:25.644Z,49.00
2017-10-15T12:20:52.702Z,49.50
2017-10-15T12:23:20.213Z,50.30
2017-10-15T12:25:46.899Z,50.80
2017-10-15T12:28:13.954Z,50.80
2017-10-15T12:30:41.026Z,50.90
2017-10-15T12:33:08.163Z,50.90
2017-10-15T12:35:35.214Z,51.30
2017-10-15T12:38:02.735Z,51.60
2017-10-15T12:40:29.123Z,50.80
2017-10-15T12:42:56.761Z,51.20
2017-10-15T12:45:23.060Z,51.10
2017-10-15T12:47:49.740Z,51.20
2017-10-15T12:50:16.585Z,51.30
2017-10-15T12:52:42.911Z,51.40
2017-10-15T12:55:09.763Z,51.50
2017-10-15T12:57:36.130Z,51.80
2017-10-15T13:00:03.230Z,51.90
2017-10-15T13:02:29.798Z,51.80
2017-10-15T13:04:56.447Z,52.30
2017-10-15T13:07:23.297Z,51.60
2017-10-15T13:09:50.139Z,52.00
2017-10-15T13:12:16.455Z,51.50
2017-10-15T13:14:42.853Z,51.20
2017-10-15T13:17:10.523Z,51.00
2017-10-15T13:19:38.025Z,50.80
2017-10-15T13:22:04.363Z,50.70
2017-10-15T13:24:30.759Z,51.40
2017-10-15T13:26:58.483Z,50.40
2017-10-15T13:29:25.544Z,50.30
2017-10-15T13:31:52.479Z,49.90
2017-10-15T13:34:19.537Z,50.70
2017-10-15T13:36:45.878Z,50.60
2017-10-15T13:39:12.519Z,50.60
2017-10-15T13:41:38.894Z,49.90
2017-10-15T13:44:05.967Z,50.90
2017-10-15T13:46:32.531Z,50.90
2017-10-15T13:48:59.339Z,50.60
2017-10-15T13:51:26.963Z,50.80
2017-10-15T13:53:53.334Z,50.80
2017-10-15T13:56:20.771Z,50.50
2017-10-15T13:58:47.507Z,51.00
2017-10-15T14:01:14.565Z,51.30
2017-10-15T14:03:41.095Z,51.20
2017-10-15T14:06:07.439Z,51.70
2017-10-15T14:08:33.893Z,52.60
2017-10-15T14:11:01.032Z,52.30
2017-10-15T14:13:27.345Z,52.00
2017-10-15T14:15:54.085Z,54.00
2017-10-15T14:18:20.503Z,53.70
2017-10-15T14:20:47.566Z,55.30
2017-10-15T14:23:14.455Z,55.40
2017-10-15T14:25:41.269Z,56.00
2017-10-15T14:28:07.591Z,56.20
2017-10-15T14:30:33.933Z,58.50
2017-10-15T14:33:00.291Z,58.10
2017-10-15T14:35:26.611Z,59.80
2017-10-15T14:37:53.487Z,60.70
2017-10-15T14:40:19.911Z,60.70
2017-10-15T14:42:46.691Z,60.30
2017-10-15T14:45:13.528Z,61.40
2017-10-15T14:47:39.831Z,64.00
2017-10-15T14:50:06.125Z,63.00
2017-10-15T14:52:33.218Z,66.50
2017-10-15T14:55:00.300Z,65.80
2017-10-15T14:57:26.619Z,63.00
2017-10-15T14:59:53.265Z,63.20
2017-10-15T15:02:20.439Z,68.50
2017-10-15T15:04:46.786Z,65.00
2017-10-15T15:07:13.654Z,64.60
2017-10-15T15:09:40.475Z,64.70
2017-10-15T15:12:06.784Z,67.10
2017-10-15T15:14:33.083Z,68.10
2017-10-15T15:17:00.603Z,65.80
2017-10-15T15:19:28.378Z,65.90
2017-10-15T15:21:55.227Z,65.80
2017-10-15T15:24:22.271Z,65.90
2017-10-15T15:26:48.708Z,66.10
2017-10-15T15:29:15.016Z,66.90
2017-10-15T15:31:42.107Z,66.40
2017-10-15T15:34:08.399Z,66.80
2017-10-15T15:36:34.719Z,67.20
2017-10-15T15:39:01.807Z,67.30
2017-10-15T15:41:30.012Z,67.40
2017-10-15T15:43:56.735Z,72.90
2017-10-15T15:46:23.482Z,69.30
2017-10-15T15:48:50.136Z,71.90
2017-10-15T15:51:16.988Z,69.70
2017-10-15T15:53:44.037Z,69.70
2017-10-15T15:56:11.195Z,70.00
2017-10-15T15:58:38.251Z,71.30
2017-10-15T16:01:05.199Z,70.30
2017-10-15T16:03:31.848Z,70.10
2017-10-15T16:05:58.839Z,70.20
2017-10-15T16:08:26.315Z,70.80
2017-10-15T16:10:53.023Z,70.90
2017-10-15T16:13:19.888Z,70.70
2017-10-15T16:15:47.727Z,71.20
2017-10-15T16:18:14.552Z,71.30
2017-10-15T16:20:41.527Z,71.30
2017-10-15T16:23:08.505Z,71.50
2017-10-15T16:25:35.295Z,72.20
2017-10-15T16:28:02.268Z,72.70
2017-10-15T16:30:29.041Z,72.80
2017-10-15T16:32:55.855Z,72.90
2017-10-15T16:35:22.965Z,73.90
2017-10-15T16:37:50.571Z,73.70
2017-10-15T16:40:17.312Z,74.00
2017-10-15T16:42:44.299Z,74.30
2017-10-15T16:45:11.201Z,74.30
2017-10-15T16:47:37.852Z,75.00
2017-10-15T16:50:04.719Z,76.60
2017-10-15T16:52:31.507Z,76.70
2017-10-15T16:54:59.134Z,76.50
2017-10-15T16:57:26.187Z,76.60
2017-10-15T16:59:53.027Z,75.90
2017-10-15T17:02:20.023Z,75.70
2017-10-15T17:04:47.419Z,75.80
2017-10-15T17:07:14.490Z,75.90
2017-10-15T17:09:41.452Z,75.60
2017-10-15T17:12:08.525Z,76.10
2017-10-15T17:14:35.379Z,76.30
2017-10-15T17:17:03.094Z,76.80
2017-10-15T17:19:30.521Z,76.90
2017-10-15T17:21:58.079Z,77.10
2017-10-15T17:24:26.812Z,77.40
2017-10-15T17:26:54.644Z,79.50
2017-10-15T17:29:22.163Z,78.30
2017-10-15T17:31:48.920Z,78.40
2017-10-15T17:34:15.955Z,77.90
2017-10-15T17:36:43.843Z,78.30
2017-10-15T17:39:10.788Z,78.30
2017-10-15T17:41:37.620Z,78.80
2017-10-15T17:44:04.287Z,78.40
2017-10-15T17:46:31.128Z,78.60
2017-10-15T17:48:57.887Z,78.90
2017-10-15T17:51:24.712Z,78.60
2017-10-15T17:53:51.468Z,78.90
2017-10-15T17:56:18.620Z,78.90
2017-10-15T17:58:45.939Z,79.20
2017-10-15T18:01:12.860Z,79.50
2017-10-15T18:03:39.805Z,79.40
2017-10-15T18:06:06.723Z,79.70
2017-10-15T18:08:33.656Z,80.60
2017-10-15T18:11:00.932Z,80.10
2017-10-15T18:13:27.763Z,80.10
2017-10-15T18:15:54.684Z,80.00
2017-10-15T18:18:21.834Z,80.00
2017-10-15T18:20:49.256Z,80.60
2017-10-15T18:23:16.343Z,80.70
2017-10-15T18:25:44.071Z,80.50
2017-10-15T18:28:10.871Z,80.70
2017-10-15T18:30:38.568Z,82.50
2017-10-15T18:33:05.471Z,82.70
2017-10-15T18:35:33.100Z,81.30
2017-10-15T18:37:59.911Z,81.40
2017-10-15T18:40:26.683Z,81.60
2017-10-15T18:42:53.643Z,82.40
2017-10-15T18:45:20.528Z,83.70
2017-10-15T18:47:48.136Z,83.00
2017-10-15T18:50:15.219Z,83.10
2017-10-15T18:52:42.735Z,82.90
2017-10-15T18:55:09.731Z,89.80
2017-10-15T18:57:36.584Z,85.90
2017-10-15T19:00:03.451Z,84.50
2017-10-15T19:02:29.831Z,83.90
2017-10-15T19:04:56.692Z,84.90
2017-10-15T19:07:23.434Z,84.10
2017-10-15T19:09:50.313Z,86.10
2017-10-15T19:12:17.361Z,84.10
2017-10-15T19:14:43.988Z,83.70
2017-10-15T19:17:11.027Z,83.70
2017-10-15T19:19:37.683Z,83.40
2017-10-15T19:22:04.440Z,83.40
2017-10-15T19:24:31.227Z,84.80
2017-10-15T19:26:58.854Z,83.50
2017-10-15T19:29:25.626Z,83.50
2017-10-15T19:31:52.629Z,83.60
2017-10-15T19:34:19.496Z,84.70
2017-10-15T19:36:46.231Z,83.80
2017-10-15T19:39:13.072Z,85.20
2017-10-15T19:41:39.929Z,85.30
2017-10-15T19:44:06.792Z,85.30
2017-10-15T19:46:33.591Z,87.00
2017-10-15T19:49:01.715Z,85.90
2017-10-15T19:51:28.563Z,86.00
2017-10-15T19:53:55.399Z,85.00
2017-10-15T19:56:22.159Z,84.60
2017-10-15T19:58:49.132Z,84.90
2017-10-15T20:01:16.202Z,84.50
2017-10-15T20:03:43.732Z,85.10
2017-10-15T20:06:10.778Z,85.20
2017-10-15T20:08:37.493Z,85.00
2017-10-15T20:11:04.572Z,84.80
2017-10-15T20:13:31.414Z,84.70
2017-10-15T20:15:58.194Z,85.70
2017-10-15T20:18:24.592Z,84.90
2017-10-15T20:20:51.439Z,86.40
2017-10-15T20:23:18.225Z,85.70
2017-10-15T20:25:45.023Z,85.40
2017-10-15T20:28:11.899Z,86.60
2017-10-15T20:30:39.879Z,85.20
2017-10-15T20:33:06.900Z,85.10
2017-10-15T20:35:34.288Z,86.00
2017-10-15T20:38:01.413Z,86.30
2017-10-15T20:40:28.287Z,85.70
2017-10-15T20:42:55.001Z,85.80
2017-10-15T20:45:21.670Z,85.70
2017-10-15T20:47:48.396Z,85.90
2017-10-15T20:50:15.387Z,86.00
2017-10-15T20:52:43.642Z,86.70
2017-10-15T20:55:10.603Z,86.80
2017-10-15T20:57:37.507Z,86.60
2017-10-15T21:00:04.810Z,86.80
2017-10-15T21:02:31.578Z,87.00
2017-10-15T21:04:58.323Z,86.70
2017-10-15T21:07:25.025Z,86.40
2017-10-15T21:09:51.871Z,86.80
2017-10-15T21:12:18.254Z,87.20
2017-10-15T21:14:45.075Z,87.00
2017-10-15T21:17:11.953Z,86.80
2017-10-15T21:19:38.771Z,86.40
2017-10-15T21:22:05.531Z,86.50
2017-10-15T21:24:31.903Z,86.70
2017-10-15T21:26:59.492Z,85.10
2017-10-15T21:29:26.227Z,85.10
2017-10-15T21:31:53.014Z,84.20
2017-10-15T21:34:19.659Z,84.50
2017-10-15T21:36:46.599Z,84.40
2017-10-15T21:39:13.447Z,84.10
2017-10-15T21:41:40.320Z,84.10
2017-10-15T21:44:07.135Z,84.30
2017-10-15T21:46:33.888Z,84.00
2017-10-15T21:49:00.747Z,83.80
2017-10-15T21:51:27.584Z,83.60
2017-10-15T21:53:53.932Z,83.70
2017-10-15T21:56:20.597Z,83.60
2017-10-15T21:58:47.396Z,83.10
2017-10-15T22:01:14.171Z,82.80
2017-10-15T22:03:40.961Z,82.40
2017-10-15T22:06:08.114Z,81.60
2017-10-15T22:08:35.755Z,81.40
2017-10-15T22:11:02.584Z,81.40
2017-10-15T22:13:29.527Z,81.70
2017-10-15T22:15:56.270Z,81.60
2017-10-15T22:18:29.338Z,81.80
2017-10-15T22:21:02.105Z,81.70
2017-10-15T22:23:28.883Z,81.70
2017-10-15T22:25:55.848Z,81.70
2017-10-15T22:28:22.591Z,82.00
2017-10-15T22:30:49.336Z,82.00
2017-10-15T22:33:16.087Z,82.20
2017-10-15T22:35:43.039Z,81.70
2017-10-15T22:38:09.778Z,81.50
2017-10-15T22:40:36.512Z,81.30
2017-10-15T22:43:03.267Z,81.50
2017-10-15T22:45:30.219Z,81.90
2017-10-15T22:47:57.175Z,81.90
2017-10-15T22:50:24.331Z,82.60
2017-10-15T22:52:51.064Z,81.60
2017-10-15T22:55:17.871Z,81.60
2017-10-15T22:57:44.647Z,81.70
2017-10-15T23:00:11.619Z,81.40
2017-10-15T23:02:38.336Z,81.30
2017-10-15T23:05:05.090Z,81.30
2017-10-15T23:07:31.940Z,81.10
2017-10-15T23:09:58.736Z,80.80
2017-10-15T23:12:26.262Z,80.30
2017-10-15T23:14:53.215Z,80.20
2017-10-15T23:17:20.260Z,80.30
2017-10-15T23:19:46.971Z,80.10
2017-10-15T23:22:13.860Z,80.10
2017-10-15T23:24:40.221Z,80.20
2017-10-15T23:27:06.940Z,80.10
2017-10-15T23:29:33.791Z,80.90
2017-10-15T23:32:00.725Z,80.20
2017-10-15T23:34:27.509Z,80.00
2017-10-15T23:36:54.422Z,79.70
2017-10-15T23:39:21.165Z,79.40
2017-10-15T23:41:47.816Z,79.40
2017-10-15T23:44:14.476Z,79.30
2017-10-15T23:46:41.215Z,79.20
2017-10-15T23:49:07.760Z,79.00
2017-10-15T23:51:34.707Z,79.10
2017-10-15T23:54:01.578Z,79.20
2017-10-15T23:56:28.499Z,79.10
2017-10-15T23:58:55.240Z,79.40
